首页
METAR-TAF:

METAR-TAF

机场 :

库萨莫机场

庫薩莫, 芬兰

纬度: 65-58N, 经度: 029-11E, 海拔: 262米

当前天气观测

该预报发布于26分钟前的04:20 UTC
风速2节,风向南转南东
温度 -1°C
湿度 100%
气压 959 hPa
能见度10公里或以上
阴天层高于300英尺
小雪

METAR: EFKS 230420Z AUTO 15002KT 9999 -SN OVC003 M01/M01 Q0959

时间: 06:46 (04:46 UTC)

预报

该预报发布于2小时和21分钟前的02:25 UTC
预报有效从23日的 03点(UTC)到 23日的 12点(UTC)
风速6节,风向南转南东
能见度10公里或以上
阴天层高于800英尺
小雪
短暂存在
从 23日的 03点(UTC)到 23日的 12点(UTC)
能見度: 2000
层高于400英尺
几率 40%
从 23日的 03点(UTC)到 23日的 12点(UTC)
(小) 冻, 毛毛雨

TAF: EFKS 230225Z 2303/2312 16006KT 9999 -SN OVC008 TEMPO 2303/2312 2000 SN VV004 PROB40 2303/2312 -FZDZ

超过4000个机场的气象观测和天气预报(METAR&TAF报告)。

可查询的气象台以黄色和红色小点在地图上表示。

将鼠标移到小点上方,可查看气象台名称。

然后点击查看天气观测和预报。

如需切换地图:点击带黑十字的绿色按钮放大地图;点击带横线的绿色按钮缩小地图;或者点击绿色箭头查看邻近地区的地图。


METAR-TAF: